Time;durP1;ratioP1;P1;durP2;ratioP2;P2;SDS_P1;SDS_P2;PMS_P1;PMS_P2;Temp;Humidity;BMP_temperature;BMP_pressure;BME280_temperature;BME280_humidity;BME280_pressure;Samples;Min_cycle;Max_cycle;Signal;HPM_P1;HPM_P2
2022/09/14 00:01:18;;;;;;;0.80;0.47;;;;;;;;;;5050982;28;20048;-67
2022/09/14 00:03:58;;;;;;;0.93;0.70;;;;;;;;;;5047265;28;20049;-67
2022/09/14 00:06:26;;;;;;;0.50;0.50;;;;;;;;;;5033300;28;20052;-67
2022/09/14 00:08:55;;;;;;;3.75;0.70;;;;;;;;;;5030272;28;20050;-66
2022/09/14 00:11:24;;;;;;;1.23;0.60;;;;;;;;;;5022508;28;20053;-67
2022/09/14 00:13:53;;;;;;;0.50;0.50;;;;;;;;;;5017400;28;20052;-67
2022/09/14 00:16:23;;;;;;;1.15;0.85;;;;;;;;;;5031610;28;20050;-67
2022/09/14 00:18:52;;;;;;;0.50;0.40;;;;;;;;;;5031128;28;20067;-67
2022/09/14 00:21:22;;;;;;;0.57;0.35;;;;;;;;;;5025017;28;20049;-68
2022/09/14 00:23:50;;;;;;;1.95;1.15;;;;;;;;;;5031760;28;20088;-67
2022/09/14 00:26:20;;;;;;;6.07;0.60;;;;;;;;;;5029169;28;20053;-67
2022/09/14 00:28:50;;;;;;;0.40;0.40;;;;;;;;;;5025386;28;20057;-68
2022/09/14 00:31:18;;;;;;;1.58;0.60;;;;;;;;;;5019821;28;20057;-67
2022/09/14 00:33:48;;;;;;;1.02;0.60;;;;;;;;;;5030529;28;20041;-67
2022/09/14 00:36:17;;;;;;;1.77;0.60;;;;;;;;;;5045782;28;20135;-67
2022/09/14 00:38:47;;;;;;;0.38;0.38;;;;;;;;;;5050881;28;20047;-67
2022/09/14 00:41:16;;;;;;;1.08;0.68;;;;;;;;;;5045741;28;20459;-67
2022/09/14 00:43:55;;;;;;;0.98;0.75;;;;;;;;;;5049451;28;20060;-67
2022/09/14 00:46:23;;;;;;;0.60;0.60;;;;;;;;;;5048039;28;20045;-67
2022/09/14 00:48:52;;;;;;;2.15;1.00;;;;;;;;;;5049351;28;20045;-67
2022/09/14 00:51:22;;;;;;;0.60;0.50;;;;;;;;;;5049480;28;20052;-67
2022/09/14 00:53:52;;;;;;;0.43;0.40;;;;;;;;;;5045950;28;20041;-68
2022/09/14 00:56:20;;;;;;;1.58;0.70;;;;;;;;;;5049007;28;20049;-67
2022/09/14 00:58:50;;;;;;;0.70;0.60;;;;;;;;;;5049206;28;20060;-67
2022/09/14 01:01:18;;;;;;;0.77;0.38;;;;;;;;;;5044812;28;20052;-68
2022/09/14 01:03:47;;;;;;;3.42;1.40;;;;;;;;;;5050077;28;20045;-67
2022/09/14 01:06:18;;;;;;;1.17;0.68;;;;;;;;;;5031794;28;20045;-67
2022/09/14 01:08:54;;;;;;;1.38;0.40;;;;;;;;;;5030039;28;20060;-68
2022/09/14 01:11:40;;;;;;;0.88;0.68;;;;;;;;;;5025539;28;20049;-68
2022/09/14 01:14:12;;;;;;;0.60;0.52;;;;;;;;;;5030066;28;20046;-66
2022/09/14 01:16:44;;;;;;;1.17;0.90;;;;;;;;;;5026426;28;20153;-67
2022/09/14 01:19:16;;;;;;;3.13;0.95;;;;;;;;;;5018786;28;20041;-67
2022/09/14 01:21:45;;;;;;;2.08;0.43;;;;;;;;;;5030707;28;20053;-67
2022/09/14 01:24:18;;;;;;;1.13;0.80;;;;;;;;;;5023630;28;20061;-67
2022/09/14 01:27:05;;;;;;;2.30;0.60;;;;;;;;;;5027855;28;20049;-67
2022/09/14 01:29:36;;;;;;;1.75;0.80;;;;;;;;;;5026994;28;20045;-67
2022/09/14 01:32:06;;;;;;;0.80;0.47;;;;;;;;;;5027744;28;20041;-67
2022/09/14 01:34:37;;;;;;;1.58;0.77;;;;;;;;;;5027550;28;20057;-67
2022/09/14 01:37:11;;;;;;;0.70;0.60;;;;;;;;;;5050494;28;20052;-68
2022/09/14 01:39:42;;;;;;;1.35;0.65;;;;;;;;;;5043789;28;20507;-67
2022/09/14 01:42:11;;;;;;;0.25;0.25;;;;;;;;;;5048024;28;20158;-68
2022/09/14 01:44:42;;;;;;;0.77;0.65;;;;;;;;;;5040227;28;20531;-67
2022/09/14 01:47:14;;;;;;;1.00;0.80;;;;;;;;;;5025743;28;20068;-67
2022/09/14 01:49:45;;;;;;;0.47;0.43;;;;;;;;;;5025866;28;20053;-67
2022/09/14 01:52:15;;;;;;;0.40;0.40;;;;;;;;;;5029718;28;20049;-67
2022/09/14 01:54:44;;;;;;;0.30;0.30;;;;;;;;;;5023949;28;20049;-67
2022/09/14 01:57:15;;;;;;;0.57;0.57;;;;;;;;;;5030006;28;20405;-68
2022/09/14 01:59:45;;;;;;;0.68;0.60;;;;;;;;;;5029662;28;20050;-67
2022/09/14 02:02:17;;;;;;;1.70;0.90;;;;;;;;;;5027266;28;20053;-67
2022/09/14 02:04:48;;;;;;;0.80;0.52;;;;;;;;;;5024079;28;20124;-68
2022/09/14 02:07:16;;;;;;;0.60;0.50;;;;;;;;;;5027895;28;20038;-68
2022/09/14 02:10:10;;;;;;;0.85;0.70;;;;;;;;;;5026037;28;20052;-68
2022/09/14 02:12:39;;;;;;;0.82;0.70;;;;;;;;;;5023331;28;20061;-68
2022/09/14 02:15:10;;;;;;;0.63;0.50;;;;;;;;;;5026123;28;20042;-67
2022/09/14 02:17:39;;;;;;;0.50;0.50;;;;;;;;;;5029982;28;20045;-67
2022/09/14 02:20:10;;;;;;;0.60;0.57;;;;;;;;;;5026785;28;20803;-67
2022/09/14 02:22:38;;;;;;;0.85;0.50;;;;;;;;;;5029248;28;20052;-67
2022/09/14 02:25:07;;;;;;;1.17;0.75;;;;;;;;;;5026991;28;20321;-67
2022/09/14 02:27:35;;;;;;;0.63;0.55;;;;;;;;;;5026721;28;20045;-68
2022/09/14 02:30:04;;;;;;;0.88;0.65;;;;;;;;;;5023785;28;20049;-68
2022/09/14 02:32:36;;;;;;;0.55;0.40;;;;;;;;;;5021730;28;20049;-69
2022/09/14 02:35:08;;;;;;;1.00;0.70;;;;;;;;;;5028364;28;20057;-68
2022/09/14 02:37:40;;;;;;;0.57;0.57;;;;;;;;;;5024708;28;20057;-68
2022/09/14 02:40:13;;;;;;;0.98;0.60;;;;;;;;;;5025721;28;20041;-67
2022/09/14 02:42:47;;;;;;;0.50;0.50;;;;;;;;;;5024903;28;20053;-67
2022/09/14 02:45:20;;;;;;;1.10;0.57;;;;;;;;;;5026993;28;20047;-68
2022/09/14 02:47:54;;;;;;;0.73;0.73;;;;;;;;;;5024782;28;20476;-67
2022/09/14 02:50:24;;;;;;;1.02;0.50;;;;;;;;;;5023880;28;20132;-67
2022/09/14 02:52:55;;;;;;;0.75;0.40;;;;;;;;;;5027639;28;20041;-67
2022/09/14 02:55:25;;;;;;;1.88;0.60;;;;;;;;;;5029217;28;20053;-67
2022/09/14 02:58:00;;;;;;;0.73;0.52;;;;;;;;;;5024790;28;20052;-68
2022/09/14 03:00:28;;;;;;;;;;;;;;;;;;5028028;28;20098;-67
2022/09/14 03:02:58;;;;;;;0.50;0.50;;;;;;;;;;5023945;28;20451;-67
2022/09/14 03:05:26;;;;;;;0.75;0.50;;;;;;;;;;5022380;28;20041;-67
2022/09/14 03:07:54;;;;;;;0.85;0.80;;;;;;;;;;5025474;28;20045;-67
2022/09/14 03:10:23;;;;;;;2.05;0.90;;;;;;;;;;5025355;28;20481;-67
2022/09/14 03:12:51;;;;;;;1.45;0.70;;;;;;;;;;5019544;28;20409;-68
2022/09/14 03:15:19;;;;;;;0.75;0.57;;;;;;;;;;5027214;28;20421;-67
2022/09/14 03:17:48;;;;;;;0.70;0.45;;;;;;;;;;5027153;28;20045;-68
2022/09/14 03:20:19;;;;;;;0.77;0.47;;;;;;;;;;5024911;28;20042;-68
2022/09/14 03:22:47;;;;;;;1.95;0.82;;;;;;;;;;5027175;28;20049;-69
2022/09/14 03:25:17;;;;;;;0.82;0.65;;;;;;;;;;5027115;28;20049;-67
2022/09/14 03:27:48;;;;;;;7.07;0.60;;;;;;;;;;5046347;28;20045;-67
2022/09/14 03:30:17;;;;;;;1.27;1.00;;;;;;;;;;5044383;28;20045;-67
2022/09/14 03:32:45;;;;;;;1.08;0.65;;;;;;;;;;5045903;28;20048;-68
2022/09/14 03:35:14;;;;;;;0.98;0.88;;;;;;;;;;5041740;28;20053;-67
2022/09/14 03:37:44;;;;;;;0.93;0.60;;;;;;;;;;5027505;28;20056;-68
2022/09/14 03:40:14;;;;;;;0.60;0.60;;;;;;;;;;5028058;28;20055;-69
2022/09/14 03:42:49;;;;;;;2.05;1.00;;;;;;;;;;5031496;28;20140;-68
2022/09/14 03:45:18;;;;;;;0.68;0.50;;;;;;;;;;5032230;28;20050;-68
2022/09/14 03:47:47;;;;;;;0.63;0.55;;;;;;;;;;5027302;28;20048;-69
2022/09/14 03:50:16;;;;;;;0.90;0.68;;;;;;;;;;5030970;28;20045;-68
2022/09/14 03:52:45;;;;;;;1.70;1.00;;;;;;;;;;5032399;28;20061;-68
2022/09/14 03:55:14;;;;;;;3.17;0.77;;;;;;;;;;5037934;28;20059;-68
2022/09/14 03:57:42;;;;;;;0.60;0.60;;;;;;;;;;5047498;28;20045;-68
2022/09/14 04:00:12;;;;;;;0.55;0.50;;;;;;;;;;5049535;28;20041;-68
2022/09/14 04:02:40;;;;;;;2.15;0.70;;;;;;;;;;5049680;28;20489;-68
2022/09/14 04:05:09;;;;;;;0.60;0.60;;;;;;;;;;5042829;28;20061;-68
2022/09/14 04:07:37;;;;;;;1.20;0.70;;;;;;;;;;5029599;28;20041;-68
2022/09/14 04:10:07;;;;;;;0.95;0.90;;;;;;;;;;5031355;28;20499;-68
2022/09/14 04:12:36;;;;;;;1.00;0.73;;;;;;;;;;5025221;28;20049;-68
2022/09/14 04:15:05;;;;;;;7.60;1.00;;;;;;;;;;5025182;28;20064;-68
2022/09/14 04:17:33;;;;;;;3.60;0.80;;;;;;;;;;5031042;28;20046;-67
2022/09/14 04:20:02;;;;;;;1.05;0.50;;;;;;;;;;5030289;28;20049;-67
2022/09/14 04:22:30;;;;;;;7.05;0.70;;;;;;;;;;5028030;28;20053;-68
2022/09/14 04:24:58;;;;;;;2.35;0.80;;;;;;;;;;5026276;28;20054;-68
2022/09/14 04:27:28;;;;;;;0.90;0.65;;;;;;;;;;5026702;28;20054;-67
2022/09/14 04:29:56;;;;;;;1.80;0.70;;;;;;;;;;5031922;28;20052;-67
2022/09/14 04:32:25;;;;;;;1.83;0.70;;;;;;;;;;5029180;28;20052;-67
2022/09/14 04:34:58;;;;;;;1.80;0.60;;;;;;;;;;5029051;28;20060;-67
2022/09/14 04:37:26;;;;;;;0.88;0.60;;;;;;;;;;5028040;28;20050;-67
2022/09/14 04:39:54;;;;;;;0.90;0.82;;;;;;;;;;5020065;28;20405;-68
2022/09/14 04:42:23;;;;;;;1.45;0.80;;;;;;;;;;5026089;28;20048;-67
2022/09/14 04:44:53;;;;;;;2.00;0.65;;;;;;;;;;5028259;28;20045;-67
2022/09/14 04:47:21;;;;;;;0.80;0.55;;;;;;;;;;5024852;28;20053;-67
2022/09/14 04:49:49;;;;;;;0.50;0.50;;;;;;;;;;5022867;28;20482;-68
2022/09/14 04:52:18;;;;;;;0.50;0.30;;;;;;;;;;5019739;28;20406;-67
2022/09/14 04:54:46;;;;;;;0.75;0.50;;;;;;;;;;5032373;28;20057;-67
2022/09/14 04:57:14;;;;;;;1.65;0.75;;;;;;;;;;5048564;28;20045;-67
2022/09/14 04:59:43;;;;;;;2.15;0.40;;;;;;;;;;5049131;28;20045;-68
2022/09/14 05:02:12;;;;;;;1.30;0.55;;;;;;;;;;5043759;28;20051;-67
2022/09/14 05:04:41;;;;;;;1.33;0.55;;;;;;;;;;5047340;28;20045;-67
2022/09/14 05:07:09;;;;;;;0.60;0.55;;;;;;;;;;5045500;28;20053;-67
2022/09/14 05:09:37;;;;;;;3.28;0.73;;;;;;;;;;5048176;28;20128;-67
2022/09/14 05:12:06;;;;;;;1.10;0.60;;;;;;;;;;5037420;28;20049;-67
2022/09/14 05:14:34;;;;;;;1.00;0.65;;;;;;;;;;5033912;28;20489;-67
2022/09/14 05:17:03;;;;;;;0.70;0.70;;;;;;;;;;5027118;28;20058;-67
2022/09/14 05:19:33;;;;;;;0.68;0.65;;;;;;;;;;5028903;28;20053;-67
2022/09/14 05:22:01;;;;;;;0.50;0.40;;;;;;;;;;5027111;28;20500;-67
2022/09/14 05:24:30;;;;;;;0.45;0.45;;;;;;;;;;5025714;28;20528;-67
2022/09/14 05:26:58;;;;;;;0.52;0.52;;;;;;;;;;5028746;28;20493;-67
2022/09/14 05:29:30;;;;;;;0.63;0.43;;;;;;;;;;5018517;28;20154;-67
2022/09/14 05:31:59;;;;;;;0.80;0.50;;;;;;;;;;5019866;28;20045;-67
2022/09/14 05:34:27;;;;;;;0.57;0.50;;;;;;;;;;5022363;28;20157;-68
2022/09/14 05:36:57;;;;;;;0.75;0.38;;;;;;;;;;5028176;28;20056;-67
2022/09/14 05:39:25;;;;;;;1.15;0.82;;;;;;;;;;5021465;28;20067;-68
2022/09/14 05:41:53;;;;;;;0.85;0.68;;;;;;;;;;5026486;28;20053;-67
2022/09/14 05:44:22;;;;;;;1.30;0.60;;;;;;;;;;5030863;28;20057;-67
2022/09/14 05:46:50;;;;;;;0.77;0.50;;;;;;;;;;5050670;28;20049;-67
2022/09/14 05:49:18;;;;;;;1.20;0.70;;;;;;;;;;5047029;28;20059;-67
2022/09/14 05:51:47;;;;;;;1.63;0.80;;;;;;;;;;5050264;28;20052;-67
2022/09/14 05:54:16;;;;;;;4.28;0.70;;;;;;;;;;5050866;28;20059;-67
2022/09/14 05:56:45;;;;;;;1.45;0.70;;;;;;;;;;5018413;28;20050;-67
2022/09/14 05:59:13;;;;;;;0.40;0.40;;;;;;;;;;5028516;28;20041;-67
2022/09/14 06:01:42;;;;;;;0.63;0.60;;;;;;;;;;5030005;28;20044;-67
2022/09/14 06:04:10;;;;;;;0.95;0.60;;;;;;;;;;5024828;28;20042;-67
2022/09/14 06:06:39;;;;;;;0.47;0.47;;;;;;;;;;5027792;28;20382;-67
2022/09/14 06:09:08;;;;;;;0.70;0.55;;;;;;;;;;5030828;28;20073;-67
2022/09/14 06:11:38;;;;;;;0.68;0.68;;;;;;;;;;5024060;28;20045;-67
2022/09/14 06:14:06;;;;;;;2.53;0.43;;;;;;;;;;5030185;28;20049;-67
2022/09/14 06:16:35;;;;;;;4.50;0.65;;;;;;;;;;5028585;28;20041;-67
2022/09/14 06:19:04;;;;;;;1.48;0.88;;;;;;;;;;5023016;28;20060;-67
2022/09/14 06:21:33;;;;;;;5.80;0.50;;;;;;;;;;5030019;28;20054;-67
2022/09/14 06:24:02;;;;;;;2.40;0.63;;;;;;;;;;5018323;28;20054;-67
2022/09/14 06:26:30;;;;;;;0.77;0.60;;;;;;;;;;5025534;28;20047;-67
2022/09/14 06:29:00;;;;;;;1.17;0.60;;;;;;;;;;5023584;28;20053;-67
2022/09/14 06:31:29;;;;;;;7.90;0.85;;;;;;;;;;5022765;28;20463;-67
2022/09/14 06:33:57;;;;;;;1.67;1.33;;;;;;;;;;5024402;28;20051;-67
2022/09/14 06:36:26;;;;;;;1.60;1.10;;;;;;;;;;5038547;28;20048;-68
2022/09/14 06:38:55;;;;;;;9.75;1.08;;;;;;;;;;5045571;28;20132;-68
2022/09/14 06:41:27;;;;;;;0.73;0.70;;;;;;;;;;5043406;28;20048;-68
2022/09/14 06:43:56;;;;;;;0.57;0.45;;;;;;;;;;5045292;28;20578;-68
2022/09/14 06:46:27;;;;;;;1.13;0.50;;;;;;;;;;5028059;28;20087;-68
2022/09/14 06:48:56;;;;;;;1.15;0.47;;;;;;;;;;5027191;28;20061;-67
2022/09/14 06:51:26;;;;;;;1.02;0.85;;;;;;;;;;5029275;28;20049;-68
2022/09/14 06:53:56;;;;;;;0.77;0.52;;;;;;;;;;5024919;28;20628;-68
2022/09/14 06:56:25;;;;;;;1.42;0.73;;;;;;;;;;5025174;28;20045;-68
2022/09/14 06:58:54;;;;;;;0.80;0.77;;;;;;;;;;5024788;28;20874;-68
2022/09/14 07:01:24;;;;;;;5.78;0.63;;;;;;;;;;5029695;28;20085;-69
2022/09/14 07:03:54;;;;;;;0.75;0.40;;;;;;;;;;5020093;28;20414;-68
2022/09/14 07:06:24;;;;;;;0.40;0.40;;;;;;;;;;5040746;28;20493;-68
2022/09/14 07:08:54;;;;;;;0.35;0.30;;;;;;;;;;5043957;28;20045;-68
2022/09/14 07:11:24;;;;;;;0.82;0.57;;;;;;;;;;5034240;28;20052;-68
2022/09/14 07:13:56;;;;;;;5.43;0.63;;;;;;;;;;5045832;28;20083;-68
2022/09/14 07:16:25;;;;;;;0.85;0.63;;;;;;;;;;5023168;28;20136;-68
2022/09/14 07:18:55;;;;;;;0.80;0.50;;;;;;;;;;5029242;28;20041;-68
2022/09/14 07:21:23;;;;;;;0.75;0.73;;;;;;;;;;5028435;28;20141;-68
2022/09/14 07:23:52;;;;;;;0.65;0.30;;;;;;;;;;5027238;28;20057;-68
2022/09/14 07:26:22;;;;;;;1.75;0.60;;;;;;;;;;5027638;28;20100;-68
2022/09/14 07:28:53;;;;;;;0.93;0.73;;;;;;;;;;5028096;28;20049;-68
2022/09/14 07:31:24;;;;;;;0.43;0.32;;;;;;;;;;5024726;28;20052;-70
2022/09/14 07:33:53;;;;;;;1.70;0.50;;;;;;;;;;5029400;28;20049;-69
2022/09/14 07:36:24;;;;;;;0.57;0.38;;;;;;;;;;5027023;28;20052;-68
2022/09/14 07:38:52;;;;;;;0.50;0.40;;;;;;;;;;5024333;28;20136;-69
2022/09/14 07:41:21;;;;;;;7.82;0.65;;;;;;;;;;5020684;28;20053;-68
2022/09/14 07:43:50;;;;;;;0.80;0.50;;;;;;;;;;5021696;28;20132;-68
2022/09/14 07:46:19;;;;;;;4.35;0.50;;;;;;;;;;5043244;28;20059;-69
2022/09/14 07:48:48;;;;;;;0.22;0.17;;;;;;;;;;5049409;28;20056;-68
2022/09/14 07:51:17;;;;;;;0.77;0.40;;;;;;;;;;5049796;28;20045;-68
2022/09/14 07:53:47;;;;;;;0.68;0.40;;;;;;;;;;5044543;28;20049;-68
2022/09/14 07:56:16;;;;;;;1.27;0.32;;;;;;;;;;5033428;28;20049;-68
2022/09/14 07:58:45;;;;;;;0.93;0.40;;;;;;;;;;5028659;28;20045;-68
2022/09/14 08:01:13;;;;;;;0.40;0.40;;;;;;;;;;5026231;28;20137;-67
2022/09/14 08:03:43;;;;;;;1.42;0.63;;;;;;;;;;5029809;28;20061;-68
2022/09/14 08:06:13;;;;;;;0.30;0.25;;;;;;;;;;5046047;28;20472;-68
2022/09/14 08:08:42;;;;;;;0.55;0.43;;;;;;;;;;5047817;28;20041;-70
2022/09/14 08:11:13;;;;;;;0.32;0.30;;;;;;;;;;5037557;28;20135;-69
2022/09/14 08:13:42;;;;;;;0.65;0.50;;;;;;;;;;5048706;28;20053;-68
2022/09/14 08:16:11;;;;;;;0.50;0.50;;;;;;;;;;5048506;28;20045;-68
2022/09/14 08:18:40;;;;;;;1.88;0.77;;;;;;;;;;5046302;28;20060;-68
2022/09/14 08:21:10;;;;;;;5.75;0.38;;;;;;;;;;5047659;28;20049;-68
2022/09/14 08:23:38;;;;;;;0.73;0.40;;;;;;;;;;5050466;28;20144;-69
2022/09/14 08:26:07;;;;;;;0.35;0.30;;;;;;;;;;5038573;28;20405;-69
2022/09/14 08:28:37;;;;;;;1.13;0.77;;;;;;;;;;5038155;28;20051;-70
2022/09/14 08:31:06;;;;;;;1.65;0.43;;;;;;;;;;5018406;28;20049;-69
2022/09/14 08:33:35;;;;;;;3.53;0.88;;;;;;;;;;5031911;28;20049;-69
2022/09/14 08:36:03;;;;;;;0.77;0.32;;;;;;;;;;5030502;28;20065;-69
2022/09/14 08:38:32;;;;;;;0.82;0.30;;;;;;;;;;5031630;28;20060;-69
2022/09/14 08:41:07;;;;;;;0.45;0.40;;;;;;;;;;5026105;28;20045;-69
2022/09/14 08:43:38;;;;;;;1.10;0.30;;;;;;;;;;5027114;28;20112;-70
2022/09/14 08:46:10;;;;;;;0.50;0.30;;;;;;;;;;5045552;28;20049;-70
2022/09/14 08:48:42;;;;;;;2.45;0.40;;;;;;;;;;5047179;28;20071;-72
2022/09/14 08:51:10;;;;;;;0.85;0.45;;;;;;;;;;5045824;28;20477;-70
2022/09/14 08:53:40;;;;;;;0.50;0.40;;;;;;;;;;5051789;28;20095;-70
2022/09/14 08:56:13;;;;;;;2.72;1.00;;;;;;;;;;5051089;28;20156;-71
2022/09/14 08:58:49;;;;;;;1.35;0.50;;;;;;;;;;5041999;28;20041;-70
2022/09/14 09:01:20;;;;;;;0.85;0.50;;;;;;;;;;5051016;28;20128;-70
2022/09/14 09:03:58;;;;;;;0.70;0.50;;;;;;;;;;5050442;28;20045;-69
2022/09/14 09:06:30;;;;;;;0.50;0.50;;;;;;;;;;5031258;28;20131;-70
2022/09/14 09:09:03;;;;;;;2.00;0.52;;;;;;;;;;5029041;28;20082;-70
2022/09/14 09:11:36;;;;;;;0.60;0.47;;;;;;;;;;5031338;28;20148;-70
2022/09/14 09:14:13;;;;;;;2.90;0.47;;;;;;;;;;5030185;28;20092;-70
2022/09/14 09:16:47;;;;;;;5.22;0.68;;;;;;;;;;5029435;28;20065;-70
2022/09/14 09:19:18;;;;;;;2.00;0.45;;;;;;;;;;5030553;28;20041;-70
2022/09/14 09:21:48;;;;;;;0.70;0.63;;;;;;;;;;5027665;28;20050;-69
2022/09/14 09:24:23;;;;;;;1.38;0.28;;;;;;;;;;5030155;28;20053;-70
2022/09/14 09:26:52;;;;;;;0.82;0.50;;;;;;;;;;5029199;28;20045;-70
2022/09/14 09:29:23;;;;;;;0.50;0.40;;;;;;;;;;5019356;28;20501;-70
2022/09/14 09:31:53;;;;;;;0.90;0.43;;;;;;;;;;5028151;28;20068;-70
2022/09/14 09:34:24;;;;;;;0.63;0.52;;;;;;;;;;5031317;28;20404;-70
2022/09/14 09:36:54;;;;;;;1.38;0.80;;;;;;;;;;5019392;28;20059;-70
2022/09/14 09:39:24;;;;;;;0.30;0.30;;;;;;;;;;5030936;28;20053;-71
2022/09/14 09:41:56;;;;;;;0.80;0.57;;;;;;;;;;5028365;28;20046;-70
2022/09/14 09:44:27;;;;;;;2.63;0.55;;;;;;;;;;5026077;28;20042;-71
2022/09/14 09:46:57;;;;;;;0.98;0.50;;;;;;;;;;5042556;28;20055;-70
2022/09/14 09:49:27;;;;;;;3.58;0.82;;;;;;;;;;5049197;28;20049;-71
2022/09/14 09:51:55;;;;;;;0.60;0.30;;;;;;;;;;5038936;28;20063;-71
2022/09/14 09:54:25;;;;;;;0.70;0.43;;;;;;;;;;5049178;28;20041;-70
2022/09/14 09:56:56;;;;;;;0.82;0.55;;;;;;;;;;5031084;28;20095;-70
2022/09/14 09:59:31;;;;;;;0.93;0.52;;;;;;;;;;5029083;28;20053;-70
2022/09/14 10:02:20;;;;;;;0.50;0.50;;;;;;;;;;5022454;28;20048;-70
2022/09/14 10:04:57;;;;;;;1.00;0.70;;;;;;;;;;5030251;28;20083;-72
2022/09/14 10:07:26;;;;;;;2.78;0.50;;;;;;;;;;5029061;28;20053;-70
2022/09/14 10:09:59;;;;;;;0.52;0.43;;;;;;;;;;5029391;28;20045;-71
2022/09/14 10:12:28;;;;;;;2.20;0.38;;;;;;;;;;5030498;28;20049;-71
2022/09/14 10:15:15;;;;;;;1.85;0.45;;;;;;;;;;5029589;28;20522;-70
2022/09/14 10:18:07;;;;;;;2.65;0.80;;;;;;;;;;5027469;28;20052;-69
2022/09/14 10:20:37;;;;;;;0.73;0.52;;;;;;;;;;5025671;28;20056;-69
2022/09/14 10:23:24;;;;;;;1.23;0.50;;;;;;;;;;5020471;28;20502;-69
2022/09/14 10:25:54;;;;;;;0.63;0.50;;;;;;;;;;5024878;28;20395;-69
2022/09/14 10:28:24;;;;;;;1.55;0.60;;;;;;;;;;5022224;28;20060;-70
2022/09/14 10:30:59;;;;;;;4.30;0.73;;;;;;;;;;5024573;28;20049;-70
2022/09/14 10:33:27;;;;;;;;;;;;;;;;;;5027884;28;20057;-69
2022/09/14 10:36:01;;;;;;;0.63;0.47;;;;;;;;;;5027120;28;20421;-69
2022/09/14 10:38:32;;;;;;;1.17;0.50;;;;;;;;;;5028651;28;20059;-70
2022/09/14 10:41:05;;;;;;;1.00;0.30;;;;;;;;;;5028049;28;20063;-69
2022/09/14 10:43:38;;;;;;;4.60;1.77;;;;;;;;;;5028058;28;20056;-70
2022/09/14 10:46:11;;;;;;;1.02;0.93;;;;;;;;;;5027812;28;20073;-69
2022/09/14 10:48:52;;;;;;;1.52;0.65;;;;;;;;;;5027803;28;20063;-70
2022/09/14 10:51:25;;;;;;;4.05;0.70;;;;;;;;;;5027704;28;20049;-70
2022/09/14 10:53:56;;;;;;;4.20;0.87;;;;;;;;;;5028150;28;20136;-70
2022/09/14 10:56:27;;;;;;;0.82;0.47;;;;;;;;;;5023473;28;20056;-70
2022/09/14 10:59:01;;;;;;;0.55;0.52;;;;;;;;;;5024959;28;20049;-70
2022/09/14 11:01:37;;;;;;;2.60;0.77;;;;;;;;;;5023480;28;20087;-70
2022/09/14 11:04:16;;;;;;;0.60;0.50;;;;;;;;;;5024526;28;20859;-70
2022/09/14 11:06:49;;;;;;;0.70;0.30;;;;;;;;;;5024577;28;20581;-70
2022/09/14 11:09:22;;;;;;;0.60;0.38;;;;;;;;;;5020944;28;20426;-70
2022/09/14 11:11:55;;;;;;;0.88;0.52;;;;;;;;;;5022101;28;20133;-70
2022/09/14 11:14:34;;;;;;;3.50;0.73;;;;;;;;;;5024023;28;20049;-70
2022/09/14 11:17:13;;;;;;;1.05;0.60;;;;;;;;;;5024791;28;20175;-71
2022/09/14 11:19:46;;;;;;;1.23;0.60;;;;;;;;;;5046586;28;20041;-72
2022/09/14 11:22:17;;;;;;;0.45;0.35;;;;;;;;;;5041860;28;20049;-71
2022/09/14 11:24:48;;;;;;;1.65;0.45;;;;;;;;;;5042355;28;20049;-70
2022/09/14 11:27:22;;;;;;;2.83;0.73;;;;;;;;;;5025605;28;20049;-70
2022/09/14 11:29:53;;;;;;;0.70;0.55;;;;;;;;;;5025967;28;20053;-70
2022/09/14 11:32:26;;;;;;;0.60;0.50;;;;;;;;;;5027011;28;20049;-70
2022/09/14 11:34:56;;;;;;;3.25;0.70;;;;;;;;;;5022765;28;20042;-70
2022/09/14 11:37:30;;;;;;;0.40;0.40;;;;;;;;;;5027973;28;20041;-69
2022/09/14 11:40:02;;;;;;;1.13;0.43;;;;;;;;;;5025482;28;20088;-71
2022/09/14 11:42:32;;;;;;;1.48;0.75;;;;;;;;;;5025533;28;20053;-70
2022/09/14 11:45:03;;;;;;;1.52;0.95;;;;;;;;;;5032912;28;20124;-71
2022/09/14 11:47:36;;;;;;;2.22;0.50;;;;;;;;;;5045232;28;20536;-70
2022/09/14 11:50:07;;;;;;;0.40;0.40;;;;;;;;;;5040102;28;20041;-71
2022/09/14 11:52:36;;;;;;;3.92;0.60;;;;;;;;;;5046074;28;20855;-71
2022/09/14 11:55:09;;;;;;;2.25;0.70;;;;;;;;;;5047168;28;20045;-71
2022/09/14 11:57:37;;;;;;;1.33;0.85;;;;;;;;;;5048938;28;20099;-71
2022/09/14 12:00:11;;;;;;;0.85;0.70;;;;;;;;;;5049927;28;20053;-70
2022/09/14 12:02:48;;;;;;;2.65;0.52;;;;;;;;;;5051606;28;20056;-70
2022/09/14 12:05:37;;;;;;;1.25;0.95;;;;;;;;;;5050087;28;20045;-73
2022/09/14 12:08:25;;;;;;;1.70;1.25;;;;;;;;;;5047657;28;20049;-71
2022/09/14 12:11:04;;;;;;;5.35;0.65;;;;;;;;;;5050462;28;20072;-71
2022/09/14 12:13:33;;;;;;;3.67;0.77;;;;;;;;;;5052146;28;20500;-72
2022/09/14 12:16:03;;;;;;;0.70;0.45;;;;;;;;;;5032613;28;20062;-70
2022/09/14 12:18:32;;;;;;;1.50;0.77;;;;;;;;;;5030070;28;20060;-70
2022/09/14 12:21:08;;;;;;;0.30;0.30;;;;;;;;;;5023847;28;20133;-72
2022/09/14 12:23:43;;;;;;;0.40;0.40;;;;;;;;;;5029948;28;20050;-72
2022/09/14 12:26:26;;;;;;;0.73;0.55;;;;;;;;;;5044222;28;20053;-71
2022/09/14 12:28:57;;;;;;;0.50;0.50;;;;;;;;;;5041790;28;20098;-71
2022/09/14 12:31:34;;;;;;;4.70;0.70;;;;;;;;;;5051836;28;20447;-71
2022/09/14 12:34:21;;;;;;;3.47;0.73;;;;;;;;;;5045988;28;20102;-71
2022/09/14 12:37:13;;;;;;;0.90;0.70;;;;;;;;;;5045026;28;20037;-70
2022/09/14 12:40:03;;;;;;;1.05;0.52;;;;;;;;;;5050731;28;20053;-70
2022/09/14 12:42:31;;;;;;;1.48;0.60;;;;;;;;;;5053038;28;20060;-70
2022/09/14 12:45:21;;;;;;;1.33;0.70;;;;;;;;;;5046205;28;20088;-70
2022/09/14 12:47:53;;;;;;;1.55;0.95;;;;;;;;;;5028845;28;20046;-70
2022/09/14 12:50:21;;;;;;;2.78;0.85;;;;;;;;;;5028780;28;20107;-71
2022/09/14 12:52:55;;;;;;;1.67;0.68;;;;;;;;;;5028535;28;20041;-70
2022/09/14 12:55:34;;;;;;;0.85;0.65;;;;;;;;;;5030102;28;20061;-70
2022/09/14 12:58:04;;;;;;;0.70;0.50;;;;;;;;;;5049119;28;20048;-70
2022/09/14 13:00:36;;;;;;;1.05;0.55;;;;;;;;;;5051595;28;20049;-70
2022/09/14 13:03:15;;;;;;;6.28;0.82;;;;;;;;;;5048087;28;20110;-70
2022/09/14 13:05:45;;;;;;;1.17;0.75;;;;;;;;;;5045514;28;20065;-72
2022/09/14 13:08:18;;;;;;;1.52;0.70;;;;;;;;;;5050373;28;20049;-71
2022/09/14 13:10:49;;;;;;;0.57;0.50;;;;;;;;;;5045360;28;20599;-71
2022/09/14 13:13:18;;;;;;;2.42;0.63;;;;;;;;;;5049567;28;20045;-70
2022/09/14 13:15:52;;;;;;;2.00;0.80;;;;;;;;;;5034307;28;20046;-72
2022/09/14 13:18:32;;;;;;;1.65;0.68;;;;;;;;;;5028436;28;20068;-71
2022/09/14 13:21:01;;;;;;;0.73;0.35;;;;;;;;;;5026593;28;20131;-71
2022/09/14 13:23:32;;;;;;;2.33;0.80;;;;;;;;;;5031576;28;20055;-71
2022/09/14 13:26:08;;;;;;;1.05;0.50;;;;;;;;;;5025861;28;20042;-71
2022/09/14 13:28:37;;;;;;;2.20;0.50;;;;;;;;;;5029568;28;20053;-72
2022/09/14 13:31:05;;;;;;;0.43;0.43;;;;;;;;;;5029476;28;20048;-71
2022/09/14 13:33:34;;;;;;;2.60;0.47;;;;;;;;;;5031321;28;20045;-70
2022/09/14 13:36:03;;;;;;;0.68;0.60;;;;;;;;;;5026386;28;20048;-71
2022/09/14 13:38:33;;;;;;;2.45;0.70;;;;;;;;;;5031203;28;20045;-70
2022/09/14 13:41:08;;;;;;;0.40;0.38;;;;;;;;;;5028677;28;20088;-70
2022/09/14 13:43:36;;;;;;;;;;;;;;;;;;5025912;28;20045;-70
2022/09/14 13:46:06;;;;;;;0.45;0.30;;;;;;;;;;5026644;28;19921;-70
2022/09/14 13:48:36;;;;;;;1.73;0.77;;;;;;;;;;5028196;28;20170;-71
2022/09/14 13:51:05;;;;;;;5.50;0.70;;;;;;;;;;5028805;28;20041;-71
2022/09/14 13:53:38;;;;;;;1.17;0.65;;;;;;;;;;5024726;28;20067;-71
2022/09/14 13:56:21;;;;;;;3.13;0.75;;;;;;;;;;5028320;28;20045;-71
2022/09/14 13:58:50;;;;;;;2.47;0.82;;;;;;;;;;5023919;28;20048;-70
2022/09/14 14:01:26;;;;;;;0.77;0.68;;;;;;;;;;5029324;28;20052;-70
2022/09/14 14:03:57;;;;;;;1.08;0.40;;;;;;;;;;5028028;28;20083;-70
2022/09/14 14:06:27;;;;;;;0.82;0.60;;;;;;;;;;5025488;28;20564;-70
2022/09/14 14:08:57;;;;;;;1.13;0.52;;;;;;;;;;5024643;28;20485;-70
2022/09/14 14:11:32;;;;;;;0.75;0.47;;;;;;;;;;5025272;28;20489;-70
2022/09/14 14:14:20;;;;;;;0.40;0.40;;;;;;;;;;5028229;28;20099;-71
2022/09/14 14:17:07;;;;;;;4.15;0.70;;;;;;;;;;5023791;28;20412;-70
2022/09/14 14:19:36;;;;;;;1.27;0.85;;;;;;;;;;5025987;28;20906;-70
2022/09/14 14:22:18;;;;;;;0.50;0.32;;;;;;;;;;5028433;28;20041;-70
2022/09/14 14:24:47;;;;;;;0.90;0.50;;;;;;;;;;5024083;28;20128;-71
2022/09/14 14:27:38;;;;;;;0.77;0.75;;;;;;;;;;5028340;28;20412;-70
2022/09/14 14:30:13;;;;;;;3.90;0.90;;;;;;;;;;5023649;28;20417;-70
2022/09/14 14:32:42;;;;;;;0.82;0.52;;;;;;;;;;5028033;28;20045;-71
2022/09/14 14:35:15;;;;;;;1.55;0.50;;;;;;;;;;5024809;28;20409;-71
2022/09/14 14:37:44;;;;;;;0.77;0.50;;;;;;;;;;5021549;28;20068;-71
2022/09/14 14:40:13;;;;;;;0.63;0.40;;;;;;;;;;5027922;28;20121;-71
2022/09/14 14:42:43;;;;;;;1.20;0.70;;;;;;;;;;5026585;28;20045;-71
2022/09/14 14:45:14;;;;;;;0.57;0.50;;;;;;;;;;5027174;28;20440;-71
2022/09/14 14:47:43;;;;;;;2.08;0.73;;;;;;;;;;5028063;28;20092;-71
2022/09/14 14:50:14;;;;;;;0.47;0.45;;;;;;;;;;5028405;28;20055;-71
2022/09/14 14:52:42;;;;;;;0.98;0.43;;;;;;;;;;5026344;28;20050;-71
2022/09/14 14:55:11;;;;;;;1.70;0.73;;;;;;;;;;5026009;28;20057;-71
2022/09/14 14:57:40;;;;;;;3.63;0.70;;;;;;;;;;5029438;28;20092;-70
2022/09/14 15:00:14;;;;;;;0.88;0.40;;;;;;;;;;5022967;28;20100;-70
2022/09/14 15:02:42;;;;;;;0.85;0.38;;;;;;;;;;5024302;28;20088;-71
2022/09/14 15:05:11;;;;;;;0.70;0.50;;;;;;;;;;5027823;28;20049;-70
2022/09/14 15:07:40;;;;;;;2.63;0.98;;;;;;;;;;5046618;28;20049;-70